sensor_id;sensor_type;location;lat;lon;timestamp;P1;durP1;ratioP1;P2;durP2;ratioP2
39300;SDS011;25019;42.626;23.380;2024-01-10T00:00:37;5.07;;;2.10;;
39300;SDS011;25019;42.626;23.380;2024-01-10T00:03:04;6.63;;;3.17;;
39300;SDS011;25019;42.626;23.380;2024-01-10T00:05:29;5.17;;;2.90;;
39300;SDS011;25019;42.626;23.380;2024-01-10T00:07:55;4.00;;;2.30;;
39300;SDS011;25019;42.626;23.380;2024-01-10T00:10:21;2.67;;;2.20;;
39300;SDS011;25019;42.626;23.380;2024-01-10T00:12:47;2.47;;;2.20;;
39300;SDS011;25019;42.626;23.380;2024-01-10T00:15:14;5.43;;;2.90;;
39300;SDS011;25019;42.626;23.380;2024-01-10T00:17:40;4.33;;;2.60;;
39300;SDS011;25019;42.626;23.380;2024-01-10T00:20:06;4.57;;;2.47;;
39300;SDS011;25019;42.626;23.380;2024-01-10T00:22:33;4.33;;;2.63;;
39300;SDS011;25019;42.626;23.380;2024-01-10T00:24:58;2.60;;;2.00;;
39300;SDS011;25019;42.626;23.380;2024-01-10T00:27:24;5.03;;;2.60;;
39300;SDS011;25019;42.626;23.380;2024-01-10T00:29:50;3.50;;;1.93;;
39300;SDS011;25019;42.626;23.380;2024-01-10T00:32:20;3.77;;;1.80;;
39300;SDS011;25019;42.626;23.380;2024-01-10T00:34:46;2.87;;;1.73;;
39300;SDS011;25019;42.626;23.380;2024-01-10T00:37:12;4.07;;;2.30;;
39300;SDS011;25019;42.626;23.380;2024-01-10T00:39:37;4.97;;;2.27;;
39300;SDS011;25019;42.626;23.380;2024-01-10T00:42:03;4.13;;;2.27;;
39300;SDS011;25019;42.626;23.380;2024-01-10T00:44:29;3.10;;;1.87;;
39300;SDS011;25019;42.626;23.380;2024-01-10T00:46:55;3.47;;;2.07;;
39300;SDS011;25019;42.626;23.380;2024-01-10T00:49:20;3.60;;;2.30;;
39300;SDS011;25019;42.626;23.380;2024-01-10T00:51:46;5.23;;;2.50;;
39300;SDS011;25019;42.626;23.380;2024-01-10T00:54:12;5.03;;;2.40;;
39300;SDS011;25019;42.626;23.380;2024-01-10T00:56:37;3.27;;;2.20;;
39300;SDS011;25019;42.626;23.380;2024-01-10T00:59:03;3.57;;;2.27;;
39300;SDS011;25019;42.626;23.380;2024-01-10T01:01:29;5.43;;;2.30;;
39300;SDS011;25019;42.626;23.380;2024-01-10T01:03:55;3.40;;;2.37;;
39300;SDS011;25019;42.626;23.380;2024-01-10T01:06:21;4.67;;;2.73;;
39300;SDS011;25019;42.626;23.380;2024-01-10T01:08:47;6.17;;;2.80;;
39300;SDS011;25019;42.626;23.380;2024-01-10T01:11:12;5.83;;;2.73;;
39300;SDS011;25019;42.626;23.380;2024-01-10T01:13:39;4.23;;;2.70;;
39300;SDS011;25019;42.626;23.380;2024-01-10T01:16:05;4.07;;;2.30;;
39300;SDS011;25019;42.626;23.380;2024-01-10T01:18:31;4.80;;;2.90;;
39300;SDS011;25019;42.626;23.380;2024-01-10T01:20:57;4.57;;;2.70;;
39300;SDS011;25019;42.626;23.380;2024-01-10T01:23:23;3.57;;;2.33;;
39300;SDS011;25019;42.626;23.380;2024-01-10T01:25:49;3.40;;;1.87;;
39300;SDS011;25019;42.626;23.380;2024-01-10T01:28:16;3.27;;;2.10;;
39300;SDS011;25019;42.626;23.380;2024-01-10T01:30:41;5.27;;;2.60;;
39300;SDS011;25019;42.626;23.380;2024-01-10T01:33:07;3.77;;;2.47;;
39300;SDS011;25019;42.626;23.380;2024-01-10T01:35:33;4.93;;;2.50;;
39300;SDS011;25019;42.626;23.380;2024-01-10T01:37:58;3.87;;;2.47;;
39300;SDS011;25019;42.626;23.380;2024-01-10T01:40:24;6.30;;;2.47;;
39300;SDS011;25019;42.626;23.380;2024-01-10T01:42:50;3.03;;;2.37;;
39300;SDS011;25019;42.626;23.380;2024-01-10T01:45:16;4.67;;;2.60;;
39300;SDS011;25019;42.626;23.380;2024-01-10T01:47:42;4.03;;;2.40;;
39300;SDS011;25019;42.626;23.380;2024-01-10T01:50:08;4.30;;;2.27;;
39300;SDS011;25019;42.626;23.380;2024-01-10T01:52:34;6.07;;;2.37;;
39300;SDS011;25019;42.626;23.380;2024-01-10T01:55:02;4.00;;;2.43;;
39300;SDS011;25019;42.626;23.380;2024-01-10T01:57:28;3.10;;;2.10;;
39300;SDS011;25019;42.626;23.380;2024-01-10T01:59:54;4.40;;;2.07;;
39300;SDS011;25019;42.626;23.380;2024-01-10T02:02:20;4.93;;;2.77;;
39300;SDS011;25019;42.626;23.380;2024-01-10T02:04:48;6.40;;;2.37;;
39300;SDS011;25019;42.626;23.380;2024-01-10T02:07:13;2.53;;;1.83;;
39300;SDS011;25019;42.626;23.380;2024-01-10T02:09:39;4.73;;;2.60;;
39300;SDS011;25019;42.626;23.380;2024-01-10T02:12:05;4.67;;;2.60;;
39300;SDS011;25019;42.626;23.380;2024-01-10T02:14:31;4.73;;;2.70;;
39300;SDS011;25019;42.626;23.380;2024-01-10T02:16:57;5.87;;;2.67;;
39300;SDS011;25019;42.626;23.380;2024-01-10T02:19:23;5.67;;;2.30;;
39300;SDS011;25019;42.626;23.380;2024-01-10T02:21:51;5.83;;;2.73;;
39300;SDS011;25019;42.626;23.380;2024-01-10T02:24:17;6.53;;;2.73;;
39300;SDS011;25019;42.626;23.380;2024-01-10T02:26:43;5.77;;;3.03;;
39300;SDS011;25019;42.626;23.380;2024-01-10T02:29:09;6.43;;;2.50;;
39300;SDS011;25019;42.626;23.380;2024-01-10T02:31:34;4.97;;;2.80;;
39300;SDS011;25019;42.626;23.380;2024-01-10T02:34:00;5.03;;;3.13;;
39300;SDS011;25019;42.626;23.380;2024-01-10T02:36:26;4.30;;;2.83;;
39300;SDS011;25019;42.626;23.380;2024-01-10T02:38:52;4.90;;;3.10;;
39300;SDS011;25019;42.626;23.380;2024-01-10T02:41:17;5.20;;;3.23;;
39300;SDS011;25019;42.626;23.380;2024-01-10T02:43:43;6.17;;;3.50;;
39300;SDS011;25019;42.626;23.380;2024-01-10T02:46:09;7.10;;;4.40;;
39300;SDS011;25019;42.626;23.380;2024-01-10T02:48:34;6.70;;;3.63;;
39300;SDS011;25019;42.626;23.380;2024-01-10T02:51:00;5.33;;;3.27;;
39300;SDS011;25019;42.626;23.380;2024-01-10T02:53:26;6.50;;;3.63;;
39300;SDS011;25019;42.626;23.380;2024-01-10T02:55:51;4.07;;;2.90;;
39300;SDS011;25019;42.626;23.380;2024-01-10T02:58:17;6.57;;;3.17;;
39300;SDS011;25019;42.626;23.380;2024-01-10T03:00:43;9.40;;;4.30;;
39300;SDS011;25019;42.626;23.380;2024-01-10T03:03:09;5.50;;;3.43;;
39300;SDS011;25019;42.626;23.380;2024-01-10T03:05:34;7.70;;;3.60;;
39300;SDS011;25019;42.626;23.380;2024-01-10T03:08:00;6.30;;;3.23;;
39300;SDS011;25019;42.626;23.380;2024-01-10T03:10:27;3.90;;;3.37;;
39300;SDS011;25019;42.626;23.380;2024-01-10T03:12:53;5.83;;;3.20;;
39300;SDS011;25019;42.626;23.380;2024-01-10T03:15:18;6.63;;;3.13;;
39300;SDS011;25019;42.626;23.380;2024-01-10T03:17:44;6.17;;;3.23;;
39300;SDS011;25019;42.626;23.380;2024-01-10T03:20:10;8.43;;;3.17;;
39300;SDS011;25019;42.626;23.380;2024-01-10T03:22:36;5.00;;;3.30;;
39300;SDS011;25019;42.626;23.380;2024-01-10T03:25:02;5.37;;;3.10;;
39300;SDS011;25019;42.626;23.380;2024-01-10T03:27:28;4.70;;;2.77;;
39300;SDS011;25019;42.626;23.380;2024-01-10T03:29:54;5.33;;;2.93;;
39300;SDS011;25019;42.626;23.380;2024-01-10T03:32:19;5.13;;;2.80;;
39300;SDS011;25019;42.626;23.380;2024-01-10T03:34:45;5.33;;;2.73;;
39300;SDS011;25019;42.626;23.380;2024-01-10T03:37:11;6.53;;;3.03;;
39300;SDS011;25019;42.626;23.380;2024-01-10T03:39:37;5.73;;;3.27;;
39300;SDS011;25019;42.626;23.380;2024-01-10T03:42:03;4.97;;;3.10;;
39300;SDS011;25019;42.626;23.380;2024-01-10T03:44:28;4.13;;;2.53;;
39300;SDS011;25019;42.626;23.380;2024-01-10T03:46:54;5.30;;;3.20;;
39300;SDS011;25019;42.626;23.380;2024-01-10T03:49:20;3.67;;;2.53;;
39300;SDS011;25019;42.626;23.380;2024-01-10T03:51:45;5.07;;;2.57;;
39300;SDS011;25019;42.626;23.380;2024-01-10T03:54:11;6.33;;;3.37;;
39300;SDS011;25019;42.626;23.380;2024-01-10T03:56:37;4.47;;;3.00;;
39300;SDS011;25019;42.626;23.380;2024-01-10T03:59:03;6.00;;;3.23;;
39300;SDS011;25019;42.626;23.380;2024-01-10T04:01:28;5.93;;;3.20;;
39300;SDS011;25019;42.626;23.380;2024-01-10T04:03:54;3.70;;;2.73;;
39300;SDS011;25019;42.626;23.380;2024-01-10T04:06:20;4.83;;;2.97;;
39300;SDS011;25019;42.626;23.380;2024-01-10T04:08:46;6.23;;;3.40;;
39300;SDS011;25019;42.626;23.380;2024-01-10T04:11:11;5.80;;;3.30;;
39300;SDS011;25019;42.626;23.380;2024-01-10T04:13:37;4.13;;;2.60;;
39300;SDS011;25019;42.626;23.380;2024-01-10T04:16:03;6.53;;;3.17;;
39300;SDS011;25019;42.626;23.380;2024-01-10T04:18:29;6.77;;;2.67;;
39300;SDS011;25019;42.626;23.380;2024-01-10T04:20:55;4.57;;;2.73;;
39300;SDS011;25019;42.626;23.380;2024-01-10T04:23:20;5.67;;;2.37;;
39300;SDS011;25019;42.626;23.380;2024-01-10T04:25:46;3.27;;;2.30;;
39300;SDS011;25019;42.626;23.380;2024-01-10T04:28:12;4.50;;;3.00;;
39300;SDS011;25019;42.626;23.380;2024-01-10T04:30:38;9.33;;;3.00;;
39300;SDS011;25019;42.626;23.380;2024-01-10T04:33:04;7.17;;;3.07;;
39300;SDS011;25019;42.626;23.380;2024-01-10T04:35:30;5.27;;;2.40;;
39300;SDS011;25019;42.626;23.380;2024-01-10T04:37:55;3.30;;;2.20;;
39300;SDS011;25019;42.626;23.380;2024-01-10T04:40:21;4.27;;;2.10;;
39300;SDS011;25019;42.626;23.380;2024-01-10T04:42:47;3.63;;;2.27;;
39300;SDS011;25019;42.626;23.380;2024-01-10T04:45:13;7.00;;;2.63;;
39300;SDS011;25019;42.626;23.380;2024-01-10T04:47:39;3.27;;;1.90;;
39300;SDS011;25019;42.626;23.380;2024-01-10T04:50:05;4.30;;;2.43;;
39300;SDS011;25019;42.626;23.380;2024-01-10T04:52:31;3.43;;;2.10;;
39300;SDS011;25019;42.626;23.380;2024-01-10T04:54:57;3.97;;;2.50;;
39300;SDS011;25019;42.626;23.380;2024-01-10T04:57:23;3.43;;;2.17;;
39300;SDS011;25019;42.626;23.380;2024-01-10T04:59:48;4.20;;;2.10;;
39300;SDS011;25019;42.626;23.380;2024-01-10T05:02:14;3.70;;;2.30;;
39300;SDS011;25019;42.626;23.380;2024-01-10T05:04:40;8.07;;;2.30;;
39300;SDS011;25019;42.626;23.380;2024-01-10T05:07:06;5.50;;;2.33;;
39300;SDS011;25019;42.626;23.380;2024-01-10T05:09:31;4.53;;;2.60;;
39300;SDS011;25019;42.626;23.380;2024-01-10T05:11:57;3.60;;;2.20;;
39300;SDS011;25019;42.626;23.380;2024-01-10T05:14:23;6.20;;;2.43;;
39300;SDS011;25019;42.626;23.380;2024-01-10T05:16:49;2.83;;;1.97;;
39300;SDS011;25019;42.626;23.380;2024-01-10T05:19:14;6.77;;;2.93;;
39300;SDS011;25019;42.626;23.380;2024-01-10T05:21:40;4.67;;;2.40;;
39300;SDS011;25019;42.626;23.380;2024-01-10T05:24:06;9.87;;;2.23;;
39300;SDS011;25019;42.626;23.380;2024-01-10T05:26:32;5.37;;;2.87;;
39300;SDS011;25019;42.626;23.380;2024-01-10T05:28:57;4.77;;;2.50;;
39300;SDS011;25019;42.626;23.380;2024-01-10T05:31:23;3.67;;;2.90;;
39300;SDS011;25019;42.626;23.380;2024-01-10T05:33:49;5.23;;;2.57;;
39300;SDS011;25019;42.626;23.380;2024-01-10T05:36:15;8.30;;;3.00;;
39300;SDS011;25019;42.626;23.380;2024-01-10T05:38:40;5.07;;;2.73;;
39300;SDS011;25019;42.626;23.380;2024-01-10T05:41:06;5.00;;;2.60;;
39300;SDS011;25019;42.626;23.380;2024-01-10T05:43:32;8.77;;;2.50;;
39300;SDS011;25019;42.626;23.380;2024-01-10T05:45:59;4.73;;;2.90;;
39300;SDS011;25019;42.626;23.380;2024-01-10T05:48:25;4.00;;;2.63;;
39300;SDS011;25019;42.626;23.380;2024-01-10T05:50:50;6.07;;;3.27;;
39300;SDS011;25019;42.626;23.380;2024-01-10T05:53:16;4.83;;;3.00;;
39300;SDS011;25019;42.626;23.380;2024-01-10T05:55:42;4.93;;;2.70;;
39300;SDS011;25019;42.626;23.380;2024-01-10T05:58:09;3.80;;;2.07;;
39300;SDS011;25019;42.626;23.380;2024-01-10T06:00:36;6.03;;;2.47;;
39300;SDS011;25019;42.626;23.380;2024-01-10T06:03:02;4.50;;;2.60;;
39300;SDS011;25019;42.626;23.380;2024-01-10T06:05:28;5.40;;;2.70;;
39300;SDS011;25019;42.626;23.380;2024-01-10T06:07:53;3.10;;;2.37;;
39300;SDS011;25019;42.626;23.380;2024-01-10T06:10:19;4.90;;;2.43;;
39300;SDS011;25019;42.626;23.380;2024-01-10T06:12:45;6.73;;;2.90;;
39300;SDS011;25019;42.626;23.380;2024-01-10T06:15:11;5.10;;;2.53;;
39300;SDS011;25019;42.626;23.380;2024-01-10T06:17:36;4.20;;;2.47;;
39300;SDS011;25019;42.626;23.380;2024-01-10T06:20:03;5.03;;;2.40;;
39300;SDS011;25019;42.626;23.380;2024-01-10T06:22:29;7.93;;;2.40;;
39300;SDS011;25019;42.626;23.380;2024-01-10T06:24:55;4.83;;;3.10;;
39300;SDS011;25019;42.626;23.380;2024-01-10T06:27:21;8.63;;;2.97;;
39300;SDS011;25019;42.626;23.380;2024-01-10T06:29:46;4.67;;;2.43;;
39300;SDS011;25019;42.626;23.380;2024-01-10T06:32:12;5.07;;;2.40;;
39300;SDS011;25019;42.626;23.380;2024-01-10T06:34:39;4.23;;;2.13;;
39300;SDS011;25019;42.626;23.380;2024-01-10T06:37:05;5.77;;;2.80;;
39300;SDS011;25019;42.626;23.380;2024-01-10T06:39:34;4.73;;;2.70;;
39300;SDS011;25019;42.626;23.380;2024-01-10T06:42:00;5.63;;;3.43;;
39300;SDS011;25019;42.626;23.380;2024-01-10T06:44:29;5.07;;;3.13;;
39300;SDS011;25019;42.626;23.380;2024-01-10T06:46:55;8.20;;;3.07;;
39300;SDS011;25019;42.626;23.380;2024-01-10T06:49:21;4.60;;;2.60;;
39300;SDS011;25019;42.626;23.380;2024-01-10T06:51:46;6.60;;;3.27;;
39300;SDS011;25019;42.626;23.380;2024-01-10T06:54:12;4.63;;;3.03;;
39300;SDS011;25019;42.626;23.380;2024-01-10T06:56:39;11.17;;;3.50;;
39300;SDS011;25019;42.626;23.380;2024-01-10T06:59:04;8.23;;;3.10;;
39300;SDS011;25019;42.626;23.380;2024-01-10T07:01:30;4.83;;;2.77;;
39300;SDS011;25019;42.626;23.380;2024-01-10T07:03:55;6.70;;;3.13;;
39300;SDS011;25019;42.626;23.380;2024-01-10T07:06:21;4.93;;;2.70;;
39300;SDS011;25019;42.626;23.380;2024-01-10T07:08:49;6.83;;;3.23;;
39300;SDS011;25019;42.626;23.380;2024-01-10T07:11:16;8.10;;;3.97;;
39300;SDS011;25019;42.626;23.380;2024-01-10T07:13:42;6.37;;;3.40;;
39300;SDS011;25019;42.626;23.380;2024-01-10T07:16:08;6.10;;;3.33;;
39300;SDS011;25019;42.626;23.380;2024-01-10T07:18:34;6.20;;;3.50;;
39300;SDS011;25019;42.626;23.380;2024-01-10T07:21:00;6.47;;;3.00;;
39300;SDS011;25019;42.626;23.380;2024-01-10T07:23:26;5.63;;;3.70;;
39300;SDS011;25019;42.626;23.380;2024-01-10T07:25:52;7.37;;;3.43;;
39300;SDS011;25019;42.626;23.380;2024-01-10T07:28:18;4.33;;;3.43;;
39300;SDS011;25019;42.626;23.380;2024-01-10T07:30:44;5.60;;;3.43;;
39300;SDS011;25019;42.626;23.380;2024-01-10T07:33:11;8.77;;;5.10;;
39300;SDS011;25019;42.626;23.380;2024-01-10T07:35:37;8.33;;;5.20;;
39300;SDS011;25019;42.626;23.380;2024-01-10T07:38:06;9.80;;;5.17;;
39300;SDS011;25019;42.626;23.380;2024-01-10T07:40:34;10.80;;;4.83;;
39300;SDS011;25019;42.626;23.380;2024-01-10T07:43:00;9.00;;;5.10;;
39300;SDS011;25019;42.626;23.380;2024-01-10T07:45:26;7.73;;;4.10;;
39300;SDS011;25019;42.626;23.380;2024-01-10T07:47:52;8.13;;;4.20;;
39300;SDS011;25019;42.626;23.380;2024-01-10T07:50:18;9.53;;;4.93;;
39300;SDS011;25019;42.626;23.380;2024-01-10T07:52:45;10.13;;;4.93;;
39300;SDS011;25019;42.626;23.380;2024-01-10T07:55:11;9.80;;;4.90;;
39300;SDS011;25019;42.626;23.380;2024-01-10T07:57:37;8.63;;;4.73;;
39300;SDS011;25019;42.626;23.380;2024-01-10T08:00:04;7.23;;;4.40;;
39300;SDS011;25019;42.626;23.380;2024-01-10T08:02:36;6.10;;;3.43;;
39300;SDS011;25019;42.626;23.380;2024-01-10T08:05:02;8.07;;;3.87;;
39300;SDS011;25019;42.626;23.380;2024-01-10T08:07:36;8.90;;;3.97;;
39300;SDS011;25019;42.626;23.380;2024-01-10T08:10:05;6.40;;;4.00;;
39300;SDS011;25019;42.626;23.380;2024-01-10T08:12:34;10.60;;;4.20;;
39300;SDS011;25019;42.626;23.380;2024-01-10T08:15:00;8.43;;;4.43;;
39300;SDS011;25019;42.626;23.380;2024-01-10T08:17:25;8.47;;;3.80;;
39300;SDS011;25019;42.626;23.380;2024-01-10T08:19:51;8.97;;;4.07;;
39300;SDS011;25019;42.626;23.380;2024-01-10T08:22:20;6.63;;;3.67;;
39300;SDS011;25019;42.626;23.380;2024-01-10T08:24:46;9.50;;;4.70;;
39300;SDS011;25019;42.626;23.380;2024-01-10T08:27:12;6.70;;;3.67;;
39300;SDS011;25019;42.626;23.380;2024-01-10T08:29:38;6.97;;;3.90;;
39300;SDS011;25019;42.626;23.380;2024-01-10T08:32:04;8.20;;;3.93;;
39300;SDS011;25019;42.626;23.380;2024-01-10T08:34:30;9.07;;;3.80;;
39300;SDS011;25019;42.626;23.380;2024-01-10T08:36:56;8.20;;;3.93;;
39300;SDS011;25019;42.626;23.380;2024-01-10T08:39:21;10.37;;;4.30;;
39300;SDS011;25019;42.626;23.380;2024-01-10T08:41:49;8.23;;;3.83;;
39300;SDS011;25019;42.626;23.380;2024-01-10T08:44:15;8.50;;;5.13;;
39300;SDS011;25019;42.626;23.380;2024-01-10T08:46:41;10.47;;;4.77;;
39300;SDS011;25019;42.626;23.380;2024-01-10T08:49:07;10.17;;;4.37;;
39300;SDS011;25019;42.626;23.380;2024-01-10T08:51:32;8.17;;;4.20;;
39300;SDS011;25019;42.626;23.380;2024-01-10T08:53:59;7.70;;;4.07;;
39300;SDS011;25019;42.626;23.380;2024-01-10T08:56:25;9.97;;;4.80;;
39300;SDS011;25019;42.626;23.380;2024-01-10T08:58:51;8.73;;;4.57;;
39300;SDS011;25019;42.626;23.380;2024-01-10T09:01:18;8.30;;;4.80;;
39300;SDS011;25019;42.626;23.380;2024-01-10T09:03:44;16.03;;;4.70;;
39300;SDS011;25019;42.626;23.380;2024-01-10T09:06:10;6.40;;;4.00;;
39300;SDS011;25019;42.626;23.380;2024-01-10T09:08:35;9.73;;;5.00;;
39300;SDS011;25019;42.626;23.380;2024-01-10T09:11:02;7.83;;;4.97;;
39300;SDS011;25019;42.626;23.380;2024-01-10T09:13:28;7.30;;;4.37;;
39300;SDS011;25019;42.626;23.380;2024-01-10T09:15:54;6.70;;;3.90;;
39300;SDS011;25019;42.626;23.380;2024-01-10T09:18:20;6.73;;;4.47;;
39300;SDS011;25019;42.626;23.380;2024-01-10T09:20:46;8.70;;;4.13;;
39300;SDS011;25019;42.626;23.380;2024-01-10T09:23:13;7.83;;;4.43;;
39300;SDS011;25019;42.626;23.380;2024-01-10T09:25:39;8.13;;;4.33;;
39300;SDS011;25019;42.626;23.380;2024-01-10T09:28:05;6.33;;;4.30;;
39300;SDS011;25019;42.626;23.380;2024-01-10T09:30:31;10.40;;;4.63;;
39300;SDS011;25019;42.626;23.380;2024-01-10T09:32:57;11.90;;;4.80;;
39300;SDS011;25019;42.626;23.380;2024-01-10T09:35:24;8.53;;;5.03;;
39300;SDS011;25019;42.626;23.380;2024-01-10T09:37:50;7.97;;;4.50;;
39300;SDS011;25019;42.626;23.380;2024-01-10T09:40:16;9.70;;;4.40;;
39300;SDS011;25019;42.626;23.380;2024-01-10T09:42:45;6.20;;;3.63;;
39300;SDS011;25019;42.626;23.380;2024-01-10T09:45:14;9.40;;;4.70;;
39300;SDS011;25019;42.626;23.380;2024-01-10T09:47:42;4.67;;;3.10;;
39300;SDS011;25019;42.626;23.380;2024-01-10T09:50:13;8.13;;;3.33;;
39300;SDS011;25019;42.626;23.380;2024-01-10T09:52:47;7.90;;;3.70;;
39300;SDS011;25019;42.626;23.380;2024-01-10T09:55:17;6.00;;;3.23;;
39300;SDS011;25019;42.626;23.380;2024-01-10T09:57:48;5.67;;;3.43;;
39300;SDS011;25019;42.626;23.380;2024-01-10T10:00:15;7.50;;;3.67;;
39300;SDS011;25019;42.626;23.380;2024-01-10T10:02:41;10.07;;;4.53;;
39300;SDS011;25019;42.626;23.380;2024-01-10T10:07:47;12.27;;;4.47;;
39300;SDS011;25019;42.626;23.380;2024-01-10T10:10:14;8.23;;;4.37;;
39300;SDS011;25019;42.626;23.380;2024-01-10T10:12:41;6.87;;;4.33;;
39300;SDS011;25019;42.626;23.380;2024-01-10T10:15:12;9.83;;;4.57;;
39300;SDS011;25019;42.626;23.380;2024-01-10T10:17:40;6.67;;;4.13;;
39300;SDS011;25019;42.626;23.380;2024-01-10T10:20:13;8.93;;;4.90;;
39300;SDS011;25019;42.626;23.380;2024-01-10T10:22:40;11.80;;;6.20;;
39300;SDS011;25019;42.626;23.380;2024-01-10T10:25:15;9.90;;;5.93;;
39300;SDS011;25019;42.626;23.380;2024-01-10T10:27:42;10.63;;;5.60;;
39300;SDS011;25019;42.626;23.380;2024-01-10T10:30:08;10.93;;;4.93;;
39300;SDS011;25019;42.626;23.380;2024-01-10T10:32:34;12.50;;;5.53;;
39300;SDS011;25019;42.626;23.380;2024-01-10T10:35:00;8.23;;;4.63;;
39300;SDS011;25019;42.626;23.380;2024-01-10T10:37:26;10.03;;;5.03;;
39300;SDS011;25019;42.626;23.380;2024-01-10T10:39:51;7.73;;;4.80;;
39300;SDS011;25019;42.626;23.380;2024-01-10T10:42:17;8.47;;;4.93;;
39300;SDS011;25019;42.626;23.380;2024-01-10T10:44:45;13.93;;;4.57;;
39300;SDS011;25019;42.626;23.380;2024-01-10T10:47:14;8.30;;;4.37;;
39300;SDS011;25019;42.626;23.380;2024-01-10T10:49:43;9.10;;;5.03;;
39300;SDS011;25019;42.626;23.380;2024-01-10T10:52:16;7.47;;;3.80;;
39300;SDS011;25019;42.626;23.380;2024-01-10T10:54:45;10.70;;;5.10;;
39300;SDS011;25019;42.626;23.380;2024-01-10T10:57:13;8.80;;;4.57;;
39300;SDS011;25019;42.626;23.380;2024-01-10T10:59:40;7.10;;;4.97;;
39300;SDS011;25019;42.626;23.380;2024-01-10T11:02:08;8.30;;;4.07;;
39300;SDS011;25019;42.626;23.380;2024-01-10T11:04:35;7.80;;;3.83;;
39300;SDS011;25019;42.626;23.380;2024-01-10T11:07:01;9.90;;;5.30;;
39300;SDS011;25019;42.626;23.380;2024-01-10T11:09:27;5.50;;;2.87;;
39300;SDS011;25019;42.626;23.380;2024-01-10T11:12:02;15.33;;;5.87;;
39300;SDS011;25019;42.626;23.380;2024-01-10T11:20:27;9.17;;;5.90;;
39300;SDS011;25019;42.626;23.380;2024-01-10T11:23:13;8.67;;;5.73;;
39300;SDS011;25019;42.626;23.380;2024-01-10T11:25:54;10.80;;;5.70;;
39300;SDS011;25019;42.626;23.380;2024-01-10T11:28:22;9.97;;;5.60;;
39300;SDS011;25019;42.626;23.380;2024-01-10T11:30:51;7.13;;;3.40;;
39300;SDS011;25019;42.626;23.380;2024-01-10T11:33:21;10.10;;;5.37;;
39300;SDS011;25019;42.626;23.380;2024-01-10T11:36:11;12.50;;;6.43;;
39300;SDS011;25019;42.626;23.380;2024-01-10T11:38:53;11.60;;;6.00;;
39300;SDS011;25019;42.626;23.380;2024-01-10T11:41:28;6.80;;;4.53;;
39300;SDS011;25019;42.626;23.380;2024-01-10T11:46:43;13.73;;;5.43;;
39300;SDS011;25019;42.626;23.380;2024-01-10T11:49:12;12.03;;;6.37;;
39300;SDS011;25019;42.626;23.380;2024-01-10T11:51:44;10.43;;;5.83;;
39300;SDS011;25019;42.626;23.380;2024-01-10T11:54:10;9.90;;;6.90;;
39300;SDS011;25019;42.626;23.380;2024-01-10T11:56:43;14.67;;;7.37;;
39300;SDS011;25019;42.626;23.380;2024-01-10T11:59:10;10.17;;;4.37;;
39300;SDS011;25019;42.626;23.380;2024-01-10T12:01:37;14.60;;;6.33;;
39300;SDS011;25019;42.626;23.380;2024-01-10T12:04:04;10.83;;;5.97;;
39300;SDS011;25019;42.626;23.380;2024-01-10T12:06:30;12.27;;;6.67;;
39300;SDS011;25019;42.626;23.380;2024-01-10T12:08:57;16.53;;;6.90;;
39300;SDS011;25019;42.626;23.380;2024-01-10T12:11:23;8.47;;;4.90;;
39300;SDS011;25019;42.626;23.380;2024-01-10T12:13:49;11.20;;;6.47;;
39300;SDS011;25019;42.626;23.380;2024-01-10T12:16:15;11.70;;;5.80;;
39300;SDS011;25019;42.626;23.380;2024-01-10T12:18:41;11.70;;;6.57;;
39300;SDS011;25019;42.626;23.380;2024-01-10T12:21:07;12.60;;;6.40;;
39300;SDS011;25019;42.626;23.380;2024-01-10T12:23:37;10.50;;;6.00;;
39300;SDS011;25019;42.626;23.380;2024-01-10T12:26:05;9.30;;;6.13;;
39300;SDS011;25019;42.626;23.380;2024-01-10T12:28:34;14.77;;;7.27;;
39300;SDS011;25019;42.626;23.380;2024-01-10T12:31:01;14.87;;;7.27;;
39300;SDS011;25019;42.626;23.380;2024-01-10T12:33:28;11.57;;;6.50;;
39300;SDS011;25019;42.626;23.380;2024-01-10T12:38:33;17.77;;;8.10;;
39300;SDS011;25019;42.626;23.380;2024-01-10T12:41:00;12.67;;;7.03;;
39300;SDS011;25019;42.626;23.380;2024-01-10T12:43:26;13.17;;;6.40;;
39300;SDS011;25019;42.626;23.380;2024-01-10T12:46:07;11.87;;;7.97;;
39300;SDS011;25019;42.626;23.380;2024-01-10T12:48:36;12.30;;;7.23;;
39300;SDS011;25019;42.626;23.380;2024-01-10T12:51:03;17.37;;;7.67;;
39300;SDS011;25019;42.626;23.380;2024-01-10T12:53:37;17.97;;;8.20;;
39300;SDS011;25019;42.626;23.380;2024-01-10T12:56:04;11.93;;;7.40;;
39300;SDS011;25019;42.626;23.380;2024-01-10T12:58:30;9.27;;;5.30;;
39300;SDS011;25019;42.626;23.380;2024-01-10T13:00:57;16.33;;;7.80;;
39300;SDS011;25019;42.626;23.380;2024-01-10T13:03:23;16.20;;;7.50;;
39300;SDS011;25019;42.626;23.380;2024-01-10T13:05:50;17.70;;;7.47;;
39300;SDS011;25019;42.626;23.380;2024-01-10T13:08:16;15.70;;;8.10;;
39300;SDS011;25019;42.626;23.380;2024-01-10T13:10:42;16.00;;;7.33;;
39300;SDS011;25019;42.626;23.380;2024-01-10T13:13:08;19.27;;;7.13;;
39300;SDS011;25019;42.626;23.380;2024-01-10T13:15:34;11.50;;;7.27;;
39300;SDS011;25019;42.626;23.380;2024-01-10T13:17:59;11.70;;;7.13;;
39300;SDS011;25019;42.626;23.380;2024-01-10T13:20:25;12.33;;;7.10;;
39300;SDS011;25019;42.626;23.380;2024-01-10T13:22:51;14.23;;;7.37;;
39300;SDS011;25019;42.626;23.380;2024-01-10T13:25:17;12.30;;;6.53;;
39300;SDS011;25019;42.626;23.380;2024-01-10T13:27:43;14.50;;;7.60;;
39300;SDS011;25019;42.626;23.380;2024-01-10T13:30:09;15.70;;;7.87;;
39300;SDS011;25019;42.626;23.380;2024-01-10T13:32:38;14.17;;;8.30;;
39300;SDS011;25019;42.626;23.380;2024-01-10T13:35:04;17.33;;;7.93;;
39300;SDS011;25019;42.626;23.380;2024-01-10T13:37:30;17.07;;;8.47;;
39300;SDS011;25019;42.626;23.380;2024-01-10T13:39:57;12.47;;;6.20;;
39300;SDS011;25019;42.626;23.380;2024-01-10T13:42:23;15.83;;;8.00;;
39300;SDS011;25019;42.626;23.380;2024-01-10T13:44:49;10.73;;;7.20;;
39300;SDS011;25019;42.626;23.380;2024-01-10T13:47:17;15.83;;;8.87;;
39300;SDS011;25019;42.626;23.380;2024-01-10T13:49:43;14.57;;;8.03;;
39300;SDS011;25019;42.626;23.380;2024-01-10T13:52:09;17.57;;;7.87;;
39300;SDS011;25019;42.626;23.380;2024-01-10T13:54:34;15.83;;;8.70;;
39300;SDS011;25019;42.626;23.380;2024-01-10T13:57:01;17.67;;;8.13;;
39300;SDS011;25019;42.626;23.380;2024-01-10T13:59:28;16.10;;;8.60;;
39300;SDS011;25019;42.626;23.380;2024-01-10T14:01:54;18.10;;;9.43;;
39300;SDS011;25019;42.626;23.380;2024-01-10T14:04:20;12.23;;;8.03;;
39300;SDS011;25019;42.626;23.380;2024-01-10T14:06:47;20.90;;;8.73;;
39300;SDS011;25019;42.626;23.380;2024-01-10T14:09:13;15.80;;;8.17;;
39300;SDS011;25019;42.626;23.380;2024-01-10T14:11:39;13.50;;;8.50;;
39300;SDS011;25019;42.626;23.380;2024-01-10T14:14:05;19.63;;;8.70;;
39300;SDS011;25019;42.626;23.380;2024-01-10T14:16:31;15.67;;;9.07;;
39300;SDS011;25019;42.626;23.380;2024-01-10T14:18:57;15.33;;;8.53;;
39300;SDS011;25019;42.626;23.380;2024-01-10T14:21:22;14.40;;;8.47;;
39300;SDS011;25019;42.626;23.380;2024-01-10T14:23:48;19.83;;;10.87;;
39300;SDS011;25019;42.626;23.380;2024-01-10T14:26:14;18.73;;;9.87;;
39300;SDS011;25019;42.626;23.380;2024-01-10T14:28:40;18.57;;;9.07;;
39300;SDS011;25019;42.626;23.380;2024-01-10T14:31:06;21.93;;;10.00;;
39300;SDS011;25019;42.626;23.380;2024-01-10T14:33:35;19.30;;;9.17;;
39300;SDS011;25019;42.626;23.380;2024-01-10T14:36:01;17.97;;;10.57;;
39300;SDS011;25019;42.626;23.380;2024-01-10T14:38:28;18.67;;;10.13;;
39300;SDS011;25019;42.626;23.380;2024-01-10T14:40:54;17.03;;;9.77;;